createdAt,value
2019-05-19T00:00:21.249Z,88.54
2019-05-19T00:02:50.926Z,88.66
2019-05-19T00:05:20.805Z,89.08
2019-05-19T00:07:50.641Z,90.33
2019-05-19T00:10:20.105Z,90.33
2019-05-19T00:12:49.591Z,90.37
2019-05-19T00:15:19.467Z,90.27
2019-05-19T00:17:48.877Z,89.66
2019-05-19T00:20:18.570Z,89.86
2019-05-19T00:22:48.087Z,90.34
2019-05-19T00:25:17.602Z,90.04
2019-05-19T00:27:47.001Z,90.04
2019-05-19T00:30:16.386Z,89.63
2019-05-19T00:32:45.923Z,88.14
2019-05-19T00:35:15.510Z,88.14
2019-05-19T00:37:44.894Z,88.36
2019-05-19T00:40:14.760Z,88.48
2019-05-19T00:42:44.268Z,88.63
2019-05-19T00:45:14.060Z,88.61
2019-05-19T00:47:43.626Z,89.04
2019-05-19T00:50:13.315Z,89.82
2019-05-19T00:52:42.701Z,90.68
2019-05-19T00:55:12.234Z,91.16
2019-05-19T00:57:42.139Z,90.92
2019-05-19T01:00:14.470Z,89.39
2019-05-19T01:02:44.067Z,86.69
2019-05-19T01:05:13.553Z,85.85
2019-05-19T01:07:43.043Z,85.72
2019-05-19T01:10:12.885Z,86.59
2019-05-19T01:12:42.428Z,86.59
2019-05-19T01:15:12.599Z,86.63
2019-05-19T01:17:42.156Z,86.81
2019-05-19T01:20:12.154Z,87.29
2019-05-19T01:22:41.689Z,87.93
2019-05-19T01:25:11.839Z,88.62
2019-05-19T01:27:41.389Z,89.14
2019-05-19T01:30:12.298Z,89.52
2019-05-19T01:32:41.947Z,90.05
2019-05-19T01:35:11.672Z,90.91
2019-05-19T01:37:41.170Z,91.29
2019-05-19T01:40:10.704Z,91.81
2019-05-19T01:42:40.209Z,92.30
2019-05-19T01:45:10.363Z,92.22
2019-05-19T01:47:39.802Z,92.52
2019-05-19T01:50:18.690Z,92.71
2019-05-19T01:52:41.686Z,93.18
2019-05-19T01:55:12.634Z,93.06
2019-05-19T01:57:42.042Z,92.69
2019-05-19T02:00:12.085Z,92.68
2019-05-19T02:02:41.631Z,93.15
2019-05-19T02:05:12.630Z,93.62
2019-05-19T02:07:42.055Z,93.02
2019-05-19T02:10:12.486Z,93.47
2019-05-19T02:12:41.891Z,94.17
2019-05-19T02:15:11.412Z,94.32
2019-05-19T02:17:40.962Z,94.22
2019-05-19T02:20:11.268Z,94.06
2019-05-19T02:22:40.672Z,93.94
2019-05-19T02:25:10.510Z,93.89
2019-05-19T02:27:40.017Z,93.98
2019-05-19T02:30:10.463Z,94.40
2019-05-19T02:32:39.942Z,94.81
2019-05-19T02:35:10.114Z,95.22
2019-05-19T02:37:39.637Z,95.71
2019-05-19T02:40:09.551Z,95.86
2019-05-19T02:42:42.148Z,96.17
2019-05-19T02:45:12.151Z,96.38
2019-05-19T02:47:43.944Z,96.40
2019-05-19T02:50:13.748Z,96.45
2019-05-19T02:52:44.569Z,96.29
2019-05-19T02:55:14.347Z,96.47
2019-05-19T02:57:43.832Z,96.66
2019-05-19T03:00:14.642Z,97.18
2019-05-19T03:02:44.184Z,97.29
2019-05-19T03:05:14.403Z,96.97
2019-05-19T03:07:43.858Z,97.00
2019-05-19T03:10:13.481Z,97.24
2019-05-19T03:12:43.052Z,97.46
2019-05-19T03:15:12.650Z,97.29
2019-05-19T03:17:42.090Z,96.62
2019-05-19T03:20:11.579Z,96.73
2019-05-19T03:22:41.077Z,96.65
2019-05-19T03:25:10.622Z,95.91
2019-05-19T03:27:40.003Z,95.71
2019-05-19T03:30:28.039Z,94.67
2019-05-19T03:33:00.087Z,93.83
2019-05-19T03:35:29.474Z,92.35
2019-05-19T03:37:59.009Z,92.49
2019-05-19T03:40:28.526Z,91.43
2019-05-19T03:42:57.918Z,90.77
2019-05-19T03:45:27.355Z,89.56
2019-05-19T03:47:56.850Z,87.97
2019-05-19T03:50:26.336Z,86.96
2019-05-19T03:52:55.776Z,86.58
2019-05-19T03:55:25.254Z,86.07
2019-05-19T03:57:54.747Z,85.18
2019-05-19T04:00:27.612Z,84.72
2019-05-19T04:02:57.004Z,84.24
2019-05-19T04:05:26.759Z,83.28
2019-05-19T04:07:56.330Z,81.90
2019-05-19T04:10:25.696Z,80.62
2019-05-19T04:12:55.301Z,80.00
2019-05-19T04:15:24.833Z,79.73
2019-05-19T04:17:54.221Z,78.40
2019-05-19T04:20:23.621Z,78.09
2019-05-19T04:22:53.152Z,77.40
2019-05-19T04:25:22.638Z,78.65
2019-05-19T04:27:52.040Z,78.09
2019-05-19T04:30:21.666Z,78.33
2019-05-19T04:32:51.143Z,77.47
2019-05-19T04:35:20.633Z,77.58
2019-05-19T04:37:50.070Z,77.43
2019-05-19T04:40:19.479Z,76.58
2019-05-19T04:42:48.958Z,76.32
2019-05-19T04:45:18.610Z,76.44
2019-05-19T04:47:47.992Z,77.04
2019-05-19T04:50:17.488Z,77.04
2019-05-19T04:52:46.935Z,76.91
2019-05-19T04:55:16.314Z,77.35
2019-05-19T04:57:45.794Z,78.31
2019-05-19T05:00:15.555Z,79.14
2019-05-19T05:02:44.950Z,80.58
2019-05-19T05:05:14.461Z,80.41
2019-05-19T05:07:44.544Z,78.44
2019-05-19T05:10:14.133Z,76.56
2019-05-19T05:12:43.530Z,75.43
2019-05-19T05:15:13.088Z,72.85
2019-05-19T05:17:42.585Z,72.34
2019-05-19T05:20:12.384Z,70.43
2019-05-19T05:22:41.796Z,67.95
2019-05-19T05:25:11.280Z,69.53
2019-05-19T05:27:40.764Z,65.89
2019-05-19T05:30:10.917Z,65.16
2019-05-19T05:32:40.297Z,64.26
2019-05-19T05:35:10.103Z,62.57
2019-05-19T05:37:39.653Z,60.84
2019-05-19T05:40:09.677Z,59.79
2019-05-19T05:42:39.066Z,59.84
2019-05-19T05:45:08.786Z,59.76
2019-05-19T05:47:38.290Z,58.82
2019-05-19T05:50:08.375Z,58.05
2019-05-19T05:52:39.030Z,58.66
2019-05-19T05:55:08.795Z,57.38
2019-05-19T05:57:38.299Z,56.60
2019-05-19T06:00:08.695Z,56.02
2019-05-19T06:02:38.073Z,55.01
2019-05-19T06:05:08.695Z,55.03
2019-05-19T06:07:38.234Z,57.62
2019-05-19T06:10:07.916Z,60.29
2019-05-19T06:12:37.406Z,60.43
2019-05-19T06:15:07.136Z,60.44
2019-05-19T06:17:36.523Z,60.76
2019-05-19T06:20:06.187Z,60.64
2019-05-19T06:22:35.776Z,60.18
2019-05-19T06:25:06.537Z,59.63
2019-05-19T06:27:35.911Z,60.25
2019-05-19T06:30:08.717Z,61.49
2019-05-19T06:32:49.268Z,60.60
2019-05-19T06:35:19.208Z,61.34
2019-05-19T06:37:48.605Z,62.67
2019-05-19T06:40:19.292Z,61.37
2019-05-19T06:42:49.128Z,62.01
2019-05-19T06:45:18.721Z,60.95
2019-05-19T06:47:48.169Z,61.10
2019-05-19T06:50:17.930Z,60.88
2019-05-19T06:52:47.328Z,59.50
2019-05-19T06:55:17.197Z,60.76
2019-05-19T06:57:46.792Z,59.53
2019-05-19T07:00:16.984Z,58.32
2019-05-19T07:02:46.458Z,57.76
2019-05-19T07:05:16.515Z,58.29
2019-05-19T07:07:46.036Z,58.21
2019-05-19T07:10:15.737Z,57.75
2019-05-19T07:12:45.175Z,58.23
2019-05-19T07:15:14.841Z,57.53
2019-05-19T07:17:44.730Z,55.79
2019-05-19T07:20:14.231Z,56.85
2019-05-19T07:22:43.647Z,57.07
2019-05-19T07:25:14.601Z,58.42
2019-05-19T07:27:44.138Z,58.89
2019-05-19T07:30:14.985Z,58.98
2019-05-19T07:32:44.475Z,57.81
2019-05-19T07:35:14.300Z,56.71
2019-05-19T07:37:43.688Z,56.26
2019-05-19T07:40:13.170Z,56.85
2019-05-19T07:42:42.702Z,57.35
2019-05-19T07:45:13.064Z,56.03
2019-05-19T07:47:42.424Z,55.55
2019-05-19T07:50:11.990Z,54.03
2019-05-19T07:52:41.511Z,53.42
2019-05-19T07:55:11.231Z,54.45
2019-05-19T07:57:40.665Z,55.73
2019-05-19T08:00:10.567Z,55.22
2019-05-19T08:02:40.098Z,55.97
2019-05-19T08:05:09.898Z,56.10
2019-05-19T08:07:39.311Z,54.87
2019-05-19T08:10:09.536Z,54.49
2019-05-19T08:12:38.987Z,52.88
2019-05-19T08:15:09.312Z,52.97
2019-05-19T08:17:38.805Z,52.43
2019-05-19T08:20:10.052Z,51.07
2019-05-19T08:22:39.430Z,50.03
2019-05-19T08:25:08.829Z,47.08
2019-05-19T08:27:38.421Z,46.04
2019-05-19T08:30:09.336Z,45.46
2019-05-19T08:32:38.720Z,46.67
2019-05-19T08:35:08.356Z,45.89
2019-05-19T08:37:37.856Z,43.97
2019-05-19T08:40:07.542Z,43.91
2019-05-19T08:42:36.973Z,43.80
2019-05-19T08:45:07.343Z,46.82
2019-05-19T08:47:36.836Z,45.89
2019-05-19T08:50:07.044Z,46.70
2019-05-19T08:52:36.530Z,46.10
2019-05-19T08:55:06.302Z,45.00
2019-05-19T08:57:35.820Z,45.81
2019-05-19T09:00:05.520Z,43.27
2019-05-19T09:02:35.007Z,41.82
2019-05-19T09:05:04.720Z,41.37
2019-05-19T09:07:34.108Z,42.00
2019-05-19T09:10:03.595Z,40.99
2019-05-19T09:12:33.518Z,41.77
2019-05-19T09:15:03.470Z,43.48
2019-05-19T09:17:32.897Z,44.52
2019-05-19T09:20:02.712Z,45.26
2019-05-19T09:22:32.335Z,46.15
2019-05-19T09:25:02.169Z,45.97
2019-05-19T09:27:31.837Z,44.81
2019-05-19T09:30:01.339Z,44.57
2019-05-19T09:32:30.731Z,45.97
2019-05-19T09:35:00.154Z,46.61
2019-05-19T09:37:29.637Z,48.00
2019-05-19T09:39:59.169Z,46.81
2019-05-19T09:42:28.600Z,47.29
2019-05-19T09:44:57.981Z,47.42
2019-05-19T09:47:27.464Z,49.09
2019-05-19T09:49:57.068Z,49.66
2019-05-19T09:52:26.495Z,49.33
2019-05-19T09:54:55.969Z,49.59
2019-05-19T09:57:25.500Z,51.00
2019-05-19T09:59:54.991Z,50.35
2019-05-19T10:02:24.391Z,49.01
2019-05-19T10:04:53.915Z,50.48
2019-05-19T10:07:23.394Z,51.92
2019-05-19T10:10:03.539Z,52.07
2019-05-19T10:12:33.042Z,51.54
2019-05-19T10:15:03.039Z,53.63
2019-05-19T10:17:32.808Z,52.20
2019-05-19T10:20:03.681Z,52.04
2019-05-19T10:22:33.707Z,50.76
2019-05-19T10:25:20.533Z,52.01
2019-05-19T10:27:34.627Z,51.10
2019-05-19T10:30:06.589Z,49.91
2019-05-19T10:32:36.275Z,49.65
2019-05-19T10:35:07.300Z,50.44
2019-05-19T10:37:36.840Z,48.84
2019-05-19T10:40:07.366Z,49.31
2019-05-19T10:42:36.897Z,48.89
2019-05-19T10:45:07.552Z,47.94
2019-05-19T10:47:36.972Z,46.84
2019-05-19T10:50:06.627Z,46.22
2019-05-19T10:52:36.200Z,45.82
2019-05-19T10:55:07.116Z,46.59
2019-05-19T10:57:36.497Z,45.89
2019-05-19T11:00:06.908Z,45.45
2019-05-19T11:02:36.425Z,45.00
2019-05-19T11:05:06.142Z,45.11
2019-05-19T11:07:35.507Z,43.29
2019-05-19T11:10:05.026Z,42.90
2019-05-19T11:12:34.502Z,43.90
2019-05-19T11:15:04.593Z,43.95
2019-05-19T11:17:34.006Z,42.85
2019-05-19T11:20:03.526Z,42.29
2019-05-19T11:22:33.013Z,41.51
2019-05-19T11:25:03.696Z,41.49
2019-05-19T11:27:33.088Z,41.80
2019-05-19T11:30:02.585Z,41.54
2019-05-19T11:32:31.997Z,41.21
2019-05-19T11:35:01.389Z,41.01
2019-05-19T11:37:30.864Z,40.51
2019-05-19T11:40:00.395Z,40.07
2019-05-19T11:42:29.767Z,38.98
2019-05-19T11:44:59.145Z,39.46
2019-05-19T11:47:28.669Z,38.10
2019-05-19T11:49:58.177Z,38.22
2019-05-19T11:52:27.573Z,38.01
2019-05-19T11:54:57.048Z,38.06
2019-05-19T11:57:26.538Z,38.70
2019-05-19T11:59:56.028Z,39.42
2019-05-19T12:02:25.464Z,39.00
2019-05-19T12:04:54.872Z,39.12
2019-05-19T12:07:24.360Z,39.27
2019-05-19T12:09:53.764Z,39.66
2019-05-19T12:12:23.286Z,38.55
2019-05-19T12:14:52.785Z,39.39
2019-05-19T12:17:22.256Z,40.30
2019-05-19T12:19:51.710Z,40.70
2019-05-19T12:22:21.233Z,40.77
2019-05-19T12:24:50.777Z,40.59
2019-05-19T12:27:20.427Z,40.59
2019-05-19T12:29:49.783Z,41.22
2019-05-19T12:32:19.323Z,40.70
2019-05-19T12:34:48.869Z,39.99
2019-05-19T12:37:18.265Z,39.65
2019-05-19T12:39:47.682Z,39.29
2019-05-19T12:42:17.174Z,39.27
2019-05-19T12:44:46.796Z,39.38
2019-05-19T12:47:16.391Z,39.14
2019-05-19T12:49:45.872Z,37.88
2019-05-19T12:52:15.331Z,37.87
2019-05-19T12:54:44.758Z,36.77
2019-05-19T12:57:14.261Z,38.32
2019-05-19T12:59:43.762Z,37.70
2019-05-19T13:02:13.181Z,37.01
2019-05-19T13:04:42.559Z,36.98
2019-05-19T13:07:12.047Z,37.57
2019-05-19T13:09:41.581Z,36.65
2019-05-19T13:12:10.971Z,35.78
2019-05-19T13:14:40.377Z,36.08
2019-05-19T13:17:10.145Z,36.24
2019-05-19T13:19:39.662Z,36.93
2019-05-19T13:22:09.056Z,36.47
2019-05-19T13:24:38.574Z,36.67
2019-05-19T13:27:08.619Z,37.45
2019-05-19T13:29:38.007Z,37.92
2019-05-19T13:32:07.573Z,37.14
2019-05-19T13:34:37.055Z,36.92
2019-05-19T13:37:06.444Z,36.76
2019-05-19T13:39:35.885Z,35.81
2019-05-19T13:42:05.560Z,33.10
2019-05-19T13:44:35.054Z,33.57
2019-05-19T13:47:04.522Z,33.48
2019-05-19T13:49:33.893Z,32.46
2019-05-19T13:52:03.478Z,32.14
2019-05-19T13:54:33.115Z,30.88
2019-05-19T13:57:11.738Z,29.53
2019-05-19T13:59:33.649Z,29.50
2019-05-19T14:02:03.305Z,29.71
2019-05-19T14:04:32.845Z,29.77
2019-05-19T14:07:02.251Z,30.15
2019-05-19T14:09:31.895Z,29.92
2019-05-19T14:12:01.293Z,29.45
2019-05-19T14:14:30.667Z,29.79
2019-05-19T14:17:00.368Z,29.54
2019-05-19T14:19:29.916Z,29.29
2019-05-19T14:21:59.529Z,29.19
2019-05-19T14:24:28.947Z,29.97
2019-05-19T14:26:58.441Z,29.57
2019-05-19T14:29:27.997Z,29.62
2019-05-19T14:31:57.435Z,29.49
2019-05-19T14:34:26.844Z,29.59
2019-05-19T14:36:56.425Z,29.18
2019-05-19T14:39:25.962Z,29.43
2019-05-19T14:41:59.550Z,29.73
2019-05-19T14:44:29.240Z,28.79
2019-05-19T14:46:58.847Z,29.11
2019-05-19T14:49:28.238Z,29.50
2019-05-19T14:51:57.776Z,29.29
2019-05-19T14:54:27.360Z,29.07
2019-05-19T14:56:56.750Z,29.48
2019-05-19T14:59:26.165Z,29.32
2019-05-19T15:01:55.651Z,29.72
2019-05-19T15:04:25.196Z,29.37
2019-05-19T15:06:54.633Z,29.37
2019-05-19T15:09:24.005Z,29.22
2019-05-19T15:11:53.493Z,29.76
2019-05-19T15:14:23.052Z,30.76
2019-05-19T15:16:52.589Z,31.93
2019-05-19T15:19:22.011Z,32.51
2019-05-19T15:21:51.575Z,32.77
2019-05-19T15:24:21.105Z,32.24
2019-05-19T15:26:50.636Z,32.31
2019-05-19T15:29:20.247Z,32.97
2019-05-19T15:31:49.663Z,33.47
2019-05-19T15:34:19.053Z,33.99
2019-05-19T15:36:48.623Z,34.42
2019-05-19T15:39:18.120Z,34.25
2019-05-19T15:41:47.510Z,34.99
2019-05-19T15:44:17.005Z,35.34
2019-05-19T15:46:46.494Z,35.87
2019-05-19T15:49:16.007Z,36.26
2019-05-19T15:52:00.610Z,36.77
2019-05-19T15:54:16.571Z,37.23
2019-05-19T15:56:46.101Z,37.56
2019-05-19T15:59:15.776Z,34.90
2019-05-19T16:01:45.175Z,33.64
2019-05-19T16:04:14.850Z,31.55
2019-05-19T16:06:44.386Z,28.37
2019-05-19T16:09:14.158Z,26.99
2019-05-19T16:11:43.695Z,25.58
2019-05-19T16:14:13.986Z,23.71
2019-05-19T16:16:43.531Z,23.75
2019-05-19T16:19:13.050Z,23.32
2019-05-19T16:21:43.247Z,23.58
2019-05-19T16:24:12.656Z,23.99
2019-05-19T16:26:42.203Z,23.23
2019-05-19T16:29:11.744Z,23.78
2019-05-19T16:31:41.185Z,24.02
2019-05-19T16:34:10.599Z,23.90
2019-05-19T16:36:40.166Z,24.50
2019-05-19T16:39:09.801Z,24.70
2019-05-19T16:41:39.215Z,25.08
2019-05-19T16:44:08.703Z,24.75
2019-05-19T16:46:38.199Z,25.75
2019-05-19T16:49:07.614Z,26.80
2019-05-19T16:51:37.166Z,26.87
2019-05-19T16:54:10.930Z,26.82
2019-05-19T16:56:42.718Z,27.28
2019-05-19T16:59:12.117Z,28.84
2019-05-19T17:01:41.625Z,29.72
2019-05-19T17:04:11.151Z,30.91
2019-05-19T17:06:40.536Z,32.01
2019-05-19T17:09:09.918Z,33.24
2019-05-19T17:11:39.493Z,34.02
2019-05-19T17:14:08.992Z,34.85
2019-05-19T17:16:38.523Z,35.82
2019-05-19T17:19:07.958Z,36.40
2019-05-19T17:21:37.545Z,36.69
2019-05-19T17:24:07.112Z,37.12
2019-05-19T17:26:36.670Z,37.88
2019-05-19T17:29:06.194Z,37.90
2019-05-19T17:31:35.588Z,38.07
2019-05-19T17:34:05.102Z,38.39
2019-05-19T17:36:34.583Z,38.40
2019-05-19T17:39:05.129Z,38.90
2019-05-19T17:41:34.631Z,38.79
2019-05-19T17:44:04.175Z,39.19
2019-05-19T17:46:33.703Z,39.59
2019-05-19T17:49:03.368Z,40.06
2019-05-19T17:51:32.789Z,40.65
2019-05-19T17:54:02.177Z,40.96
2019-05-19T17:56:32.680Z,41.25
2019-05-19T17:59:15.804Z,41.49
2019-05-19T18:01:34.286Z,41.62
2019-05-19T18:04:03.784Z,42.28
2019-05-19T18:06:33.343Z,42.55
2019-05-19T18:09:02.855Z,42.89
2019-05-19T18:11:32.382Z,43.27
2019-05-19T18:14:01.875Z,43.36
2019-05-19T18:16:31.276Z,43.80
2019-05-19T18:19:00.769Z,43.31
2019-05-19T18:21:30.391Z,42.90
2019-05-19T18:23:59.905Z,43.48
2019-05-19T18:26:29.371Z,43.43
2019-05-19T18:28:58.776Z,43.79
2019-05-19T18:31:31.153Z,43.52
2019-05-19T18:33:59.672Z,44.02
2019-05-19T18:36:29.064Z,43.46
2019-05-19T18:38:58.443Z,43.28
2019-05-19T18:41:27.983Z,43.52
2019-05-19T18:43:57.483Z,43.94
2019-05-19T18:46:26.889Z,43.37
2019-05-19T18:48:56.430Z,43.35
2019-05-19T18:51:25.869Z,43.67
2019-05-19T18:53:55.376Z,43.85
2019-05-19T18:56:24.904Z,44.00
2019-05-19T18:58:54.589Z,44.09
2019-05-19T19:01:23.986Z,43.96
2019-05-19T19:03:53.422Z,44.08
2019-05-19T19:06:23.006Z,44.14
2019-05-19T19:08:52.504Z,43.96
2019-05-19T19:11:21.923Z,43.68
2019-05-19T19:13:51.323Z,43.57
2019-05-19T19:16:21.090Z,43.37
2019-05-19T19:18:51.765Z,43.12
2019-05-19T19:21:21.167Z,42.96
2019-05-19T19:23:50.585Z,43.48
2019-05-19T19:26:20.361Z,43.16
2019-05-19T19:28:51.210Z,43.17
2019-05-19T19:31:20.876Z,42.63
2019-05-19T19:33:50.429Z,41.83
2019-05-19T19:36:19.816Z,41.05
2019-05-19T19:38:49.260Z,41.21
2019-05-19T19:41:18.796Z,40.80
2019-05-19T19:43:48.281Z,40.79
2019-05-19T19:46:17.702Z,39.37
2019-05-19T19:48:47.245Z,39.03
2019-05-19T19:51:16.739Z,38.56
2019-05-19T19:53:46.241Z,39.12
2019-05-19T19:56:15.679Z,39.13
2019-05-19T19:58:45.097Z,39.43
2019-05-19T20:01:14.694Z,39.50
2019-05-19T20:03:44.240Z,39.66
2019-05-19T20:06:13.656Z,40.20
2019-05-19T20:08:43.180Z,40.70
2019-05-19T20:11:12.678Z,40.40
2019-05-19T20:13:42.076Z,40.72
2019-05-19T20:16:11.552Z,40.94
2019-05-19T20:18:41.089Z,41.80
2019-05-19T20:21:10.477Z,41.76
2019-05-19T20:23:40.045Z,41.85
2019-05-19T20:26:09.646Z,40.35
2019-05-19T20:28:39.158Z,41.40
2019-05-19T20:31:08.573Z,41.03
2019-05-19T20:33:38.059Z,41.91
2019-05-19T20:36:07.678Z,42.25
2019-05-19T20:38:37.167Z,42.39
2019-05-19T20:41:06.592Z,41.82
2019-05-19T20:43:35.992Z,42.08
2019-05-19T20:46:05.596Z,42.51
2019-05-19T20:48:35.037Z,41.81
2019-05-19T20:51:04.605Z,41.91
2019-05-19T20:53:34.095Z,41.94
2019-05-19T20:56:03.545Z,41.76
2019-05-19T20:58:33.441Z,42.16
2019-05-19T21:01:02.930Z,42.72
2019-05-19T21:03:32.575Z,43.46
2019-05-19T21:06:01.986Z,43.90
2019-05-19T21:08:31.375Z,43.86
2019-05-19T21:11:01.211Z,43.43
2019-05-19T21:13:30.704Z,43.45
2019-05-19T21:16:00.101Z,43.32
2019-05-19T21:18:29.543Z,43.70
2019-05-19T21:20:59.036Z,43.14
2019-05-19T21:23:28.544Z,43.39
2019-05-19T21:25:57.990Z,43.62
2019-05-19T21:28:27.866Z,44.27
2019-05-19T21:31:05.359Z,44.55
2019-05-19T21:33:28.626Z,45.12
2019-05-19T21:35:58.022Z,46.66
2019-05-19T21:38:27.408Z,44.23
2019-05-19T21:40:57.121Z,45.97
2019-05-19T21:43:26.614Z,46.76
2019-05-19T21:45:55.999Z,46.84
2019-05-19T21:48:33.527Z,46.84
2019-05-19T21:51:03.370Z,47.03
2019-05-19T21:53:32.966Z,47.79
2019-05-19T21:56:02.416Z,47.06
2019-05-19T21:58:31.804Z,47.74
2019-05-19T22:01:01.312Z,47.69
2019-05-19T22:03:30.853Z,47.71
2019-05-19T22:06:00.238Z,47.84
2019-05-19T22:08:29.736Z,48.67
2019-05-19T22:10:59.314Z,48.85
2019-05-19T22:13:28.721Z,48.67
2019-05-19T22:16:11.589Z,49.46
2019-05-19T22:18:29.484Z,50.34
2019-05-19T22:20:58.910Z,51.19
2019-05-19T22:23:28.343Z,50.30
2019-05-19T22:25:57.885Z,49.58
2019-05-19T22:28:27.479Z,49.24
2019-05-19T22:30:56.914Z,49.68
2019-05-19T22:33:26.455Z,50.37
2019-05-19T22:35:55.960Z,50.39
2019-05-19T22:38:25.460Z,50.88
2019-05-19T22:40:54.888Z,51.30
2019-05-19T22:43:24.275Z,52.13
2019-05-19T22:45:53.782Z,52.36
2019-05-19T22:48:23.203Z,52.94
2019-05-19T22:50:52.709Z,53.01
2019-05-19T22:53:22.589Z,53.20
2019-05-19T22:55:52.026Z,53.44
2019-05-19T22:58:21.418Z,53.81
2019-05-19T23:00:50.917Z,54.29
2019-05-19T23:03:20.466Z,54.55
2019-05-19T23:05:49.860Z,56.81
2019-05-19T23:08:19.250Z,56.53
2019-05-19T23:10:48.804Z,56.80
2019-05-19T23:13:18.299Z,56.29
2019-05-19T23:15:47.709Z,56.40
2019-05-19T23:18:17.367Z,56.67
2019-05-19T23:20:46.865Z,57.03
2019-05-19T23:23:16.452Z,57.17
2019-05-19T23:25:45.902Z,57.45
2019-05-19T23:28:15.397Z,57.56
2019-05-19T23:30:44.788Z,58.35
2019-05-19T23:33:14.247Z,57.88
2019-05-19T23:35:43.758Z,58.02
2019-05-19T23:38:13.248Z,58.11
2019-05-19T23:40:42.680Z,58.26
2019-05-19T23:43:12.071Z,58.35
2019-05-19T23:45:41.591Z,58.63
2019-05-19T23:48:11.151Z,59.40
2019-05-19T23:50:40.588Z,61.32
2019-05-19T23:53:09.987Z,61.32
2019-05-19T23:55:39.743Z,61.65
2019-05-19T23:58:09.423Z,60.74
